Time;durP1;ratioP1;P1;durP2;ratioP2;P2;SDS_P1;SDS_P2;PMS_P1;PMS_P2;Temp;Humidity;BMP_temperature;BMP_pressure;BME280_temperature;BME280_humidity;BME280_pressure;Samples;Min_cycle;Max_cycle;Signal;HPM_P1;HPM_P2
2022/04/22 00:00:37;;;;;;;13.05;5.93;;;;;;;;;;5060283;28;20056;-65
2022/04/22 00:03:04;;;;;;;12.77;6.10;;;;;;;;;;5059193;28;20049;-66
2022/04/22 00:05:30;;;;;;;12.95;6.45;;;;;;;;;;5065099;28;20086;-66
2022/04/22 00:07:56;;;;;;;14.73;6.00;;;;;;;;;;5045813;28;20672;-66
2022/04/22 00:10:22;;;;;;;11.70;6.38;;;;;;;;;;5062998;28;20059;-66
2022/04/22 00:12:48;;;;;;;13.77;6.57;;;;;;;;;;5048578;28;20140;-66
2022/04/22 00:15:15;;;;;;;10.88;6.25;;;;;;;;;;5044561;28;20049;-66
2022/04/22 00:17:42;;;;;;;13.25;7.22;;;;;;;;;;5043423;28;20048;-65
2022/04/22 00:20:09;;;;;;;13.35;6.75;;;;;;;;;;5058729;28;20033;-65
2022/04/22 00:22:37;;;;;;;13.27;6.10;;;;;;;;;;5040118;28;20051;-66
2022/04/22 00:25:04;;;;;;;13.13;6.45;;;;;;;;;;5066214;28;20040;-66
2022/04/22 00:27:30;;;;;;;14.90;7.18;;;;;;;;;;5064618;28;20041;-66
2022/04/22 00:29:56;;;;;;;16.10;7.47;;;;;;;;;;5063779;28;20046;-66
2022/04/22 00:32:22;;;;;;;12.82;6.35;;;;;;;;;;5064945;28;20120;-66
2022/04/22 00:34:48;;;;;;;14.15;6.68;;;;;;;;;;5045282;28;20113;-66
2022/04/22 00:37:14;;;;;;;11.10;6.70;;;;;;;;;;5064902;28;20123;-66
2022/04/22 00:39:41;;;;;;;12.25;6.78;;;;;;;;;;5043320;28;20063;-66
2022/04/22 00:42:08;;;;;;;13.75;6.65;;;;;;;;;;5066468;28;20145;-66
2022/04/22 00:44:34;;;;;;;14.15;6.90;;;;;;;;;;5045518;28;20137;-65
2022/04/22 00:47:00;;;;;;;12.38;6.43;;;;;;;;;;5067057;28;20045;-66
2022/04/22 00:49:26;;;;;;;15.77;6.55;;;;;;;;;;5047217;28;20055;-66
2022/04/22 00:51:52;;;;;;;14.27;7.10;;;;;;;;;;5066070;28;20048;-66
2022/04/22 00:54:18;;;;;;;12.00;6.95;;;;;;;;;;5044164;28;20080;-66
2022/04/22 00:56:44;;;;;;;11.82;6.95;;;;;;;;;;5065222;28;20044;-66
2022/04/22 00:59:11;;;;;;;13.23;7.07;;;;;;;;;;5065319;28;20437;-65
2022/04/22 01:01:38;;;;;;;15.55;6.93;;;;;;;;;;5062118;28;20044;-65
2022/04/22 01:09:47;;;;;;;15.18;7.57;;;;;;;;;;5061542;28;20376;-66
2022/04/22 01:12:13;;;;;;;12.38;7.80;;;;;;;;;;5058670;28;20404;-65
2022/04/22 01:14:41;;;;;;;12.98;7.68;;;;;;;;;;5064251;28;20067;-65
2022/04/22 01:17:07;;;;;;;13.82;6.93;;;;;;;;;;5044244;28;20044;-66
2022/04/22 01:19:34;;;;;;;15.07;7.25;;;;;;;;;;5062240;28;20055;-65
2022/04/22 01:22:01;;;;;;;14.20;6.50;;;;;;;;;;5046170;28;20044;-65
2022/04/22 01:24:27;;;;;;;12.85;6.60;;;;;;;;;;5047493;28;20506;-65
2022/04/22 01:26:55;;;;;;;14.00;7.55;;;;;;;;;;5063579;28;20051;-65
2022/04/22 01:29:22;;;;;;;19.48;7.90;;;;;;;;;;5064470;28;20059;-65
2022/04/22 01:31:48;;;;;;;17.52;8.13;;;;;;;;;;5064654;28;20138;-65
2022/04/22 01:34:14;;;;;;;16.45;7.85;;;;;;;;;;5067063;28;20098;-65
2022/04/22 01:36:41;;;;;;;16.45;7.43;;;;;;;;;;5063669;28;20101;-65
2022/04/22 01:39:07;;;;;;;16.73;7.30;;;;;;;;;;5062962;28;20467;-65
2022/04/22 01:41:33;;;;;;;16.02;7.63;;;;;;;;;;5063130;28;20427;-65
2022/04/22 01:43:59;;;;;;;15.40;7.93;;;;;;;;;;5046926;28;20041;-66
2022/04/22 01:46:25;;;;;;;11.52;7.45;;;;;;;;;;5064718;28;20507;-66
2022/04/22 01:48:51;;;;;;;14.75;7.50;;;;;;;;;;5046303;28;20051;-65
2022/04/22 01:51:17;;;;;;;15.13;7.30;;;;;;;;;;5044781;28;20040;-65
2022/04/22 01:53:44;;;;;;;12.32;7.80;;;;;;;;;;5063743;28;20063;-65
2022/04/22 01:56:11;;;;;;;15.65;7.70;;;;;;;;;;5045009;28;20060;-65
2022/04/22 01:58:37;;;;;;;12.75;7.53;;;;;;;;;;5064828;28;20041;-66
2022/04/22 02:01:04;;;;;;;12.82;7.75;;;;;;;;;;5061443;28;20523;-65
2022/04/22 02:03:30;;;;;;;15.15;7.00;;;;;;;;;;5064814;28;20043;-65
2022/04/22 02:05:57;;;;;;;13.35;7.55;;;;;;;;;;5047149;28;20446;-66
2022/04/22 02:08:24;;;;;;;14.98;7.60;;;;;;;;;;5063261;28;20060;-65
2022/04/22 02:10:50;;;;;;;18.60;7.47;;;;;;;;;;5065157;28;20495;-65
2022/04/22 02:13:16;;;;;;;14.55;7.28;;;;;;;;;;5030580;28;20131;-66
2022/04/22 02:15:42;;;;;;;17.90;7.65;;;;;;;;;;5045940;28;20049;-66
2022/04/22 02:18:09;;;;;;;15.23;7.47;;;;;;;;;;5041589;28;20052;-65
2022/04/22 02:20:35;;;;;;;17.42;7.00;;;;;;;;;;5061899;28;20044;-66
2022/04/22 02:23:01;;;;;;;14.60;6.53;;;;;;;;;;5047010;28;20045;-65
2022/04/22 02:25:27;;;;;;;17.35;6.70;;;;;;;;;;5061642;28;20129;-65
2022/04/22 02:30:38;;;;;;;18.67;7.05;;;;;;;;;;5048020;28;20341;-65
2022/04/22 02:33:04;;;;;;;12.00;6.32;;;;;;;;;;5068067;28;20037;-65
2022/04/22 02:35:31;;;;;;;13.07;6.78;;;;;;;;;;5045309;28;20131;-66
2022/04/22 02:37:57;;;;;;;11.35;6.68;;;;;;;;;;5042276;28;20086;-65
2022/04/22 02:45:52;;;;;;;15.32;6.45;;;;;;;;;;5046211;28;20036;-65
2022/04/22 02:48:18;;;;;;;10.93;6.00;;;;;;;;;;5061715;28;20047;-65
2022/04/22 02:50:45;;;;;;;14.00;6.00;;;;;;;;;;5046013;28;20051;-65
2022/04/22 02:53:11;;;;;;;9.85;5.78;;;;;;;;;;5060984;28;20036;-65
2022/04/22 02:55:38;;;;;;;12.35;6.30;;;;;;;;;;5063808;28;20085;-65
2022/04/22 02:58:04;;;;;;;10.75;5.70;;;;;;;;;;5064364;28;20051;-65
2022/04/22 03:00:30;;;;;;;13.13;5.47;;;;;;;;;;5044100;28;20045;-65
2022/04/22 03:02:57;;;;;;;11.35;5.57;;;;;;;;;;5045271;28;20073;-65
2022/04/22 03:05:23;;;;;;;10.38;5.47;;;;;;;;;;5062009;28;20132;-65
2022/04/22 03:07:49;;;;;;;11.30;5.70;;;;;;;;;;5062497;28;20037;-65
2022/04/22 03:10:15;;;;;;;11.45;6.05;;;;;;;;;;5045412;28;20044;-65
2022/04/22 03:12:42;;;;;;;9.13;5.55;;;;;;;;;;5044670;28;20041;-65
2022/04/22 03:15:08;;;;;;;10.68;5.32;;;;;;;;;;5045039;28;20048;-65
2022/04/22 03:17:34;;;;;;;11.35;5.70;;;;;;;;;;5061679;28;20108;-65
2022/04/22 03:20:01;;;;;;;12.60;6.20;;;;;;;;;;5042549;28;20041;-65
2022/04/22 03:22:27;;;;;;;10.70;5.90;;;;;;;;;;5040090;28;20071;-65
2022/04/22 03:24:53;;;;;;;12.02;5.75;;;;;;;;;;5060321;28;20376;-65
2022/04/22 03:27:20;;;;;;;11.20;5.63;;;;;;;;;;5060429;28;20059;-65
2022/04/22 03:29:46;;;;;;;15.70;6.10;;;;;;;;;;5062938;28;20052;-65
2022/04/22 03:32:12;;;;;;;11.93;5.57;;;;;;;;;;5047995;28;20048;-65
2022/04/22 03:34:38;;;;;;;11.55;5.07;;;;;;;;;;5065699;28;20387;-65
2022/04/22 03:37:05;;;;;;;9.93;4.68;;;;;;;;;;5066056;28;20048;-65
2022/04/22 03:39:32;;;;;;;12.20;5.38;;;;;;;;;;5064851;28;20084;-65
2022/04/22 03:41:58;;;;;;;15.77;5.70;;;;;;;;;;5067063;28;20044;-65
2022/04/22 03:44:26;;;;;;;12.02;5.85;;;;;;;;;;5066663;28;20118;-65
2022/04/22 03:46:52;;;;;;;12.63;5.68;;;;;;;;;;5065680;28;20049;-65
2022/04/22 03:49:18;;;;;;;11.45;5.38;;;;;;;;;;5065115;28;20028;-65
2022/04/22 03:51:44;;;;;;;14.63;5.50;;;;;;;;;;5065869;28;20143;-65
2022/04/22 03:54:10;;;;;;;9.30;5.20;;;;;;;;;;5066933;28;20064;-65
2022/04/22 03:59:21;;;;;;;10.00;5.00;;;;;;;;;;5049951;28;20476;-66
2022/04/22 04:01:47;;;;;;;13.00;5.80;;;;;;;;;;5046545;28;20140;-65
2022/04/22 04:04:13;;;;;;;18.25;5.55;;;;;;;;;;5048580;28;20047;-65
2022/04/22 04:06:40;;;;;;;11.43;5.10;;;;;;;;;;5067574;28;20135;-65
2022/04/22 04:17:20;;;;;;;13.07;5.25;;;;;;;;;;5050062;28;20049;-65
2022/04/22 04:25:16;;;;;;;14.38;5.25;;;;;;;;;;5047938;28;20048;-65
2022/04/22 04:27:42;;;;;;;13.55;5.45;;;;;;;;;;5066701;28;20119;-65
2022/04/22 04:30:08;;;;;;;15.02;5.40;;;;;;;;;;5060940;28;20052;-65
2022/04/22 04:32:35;;;;;;;10.57;5.18;;;;;;;;;;5064148;28;20111;-65
2022/04/22 04:35:01;;;;;;;10.50;5.30;;;;;;;;;;5050190;28;20061;-65
2022/04/22 04:37:27;;;;;;;13.30;4.80;;;;;;;;;;5041962;28;20053;-65
2022/04/22 04:39:55;;;;;;;9.05;4.75;;;;;;;;;;5042031;28;20049;-65
2022/04/22 04:42:23;;;;;;;11.18;5.38;;;;;;;;;;5027783;28;20458;-65
2022/04/22 04:44:50;;;;;;;9.15;4.85;;;;;;;;;;5043953;28;20095;-65
2022/04/22 04:47:17;;;;;;;7.35;4.40;;;;;;;;;;5042870;28;20080;-65
2022/04/22 04:49:45;;;;;;;13.60;4.80;;;;;;;;;;5044154;28;20053;-65
2022/04/22 04:52:12;;;;;;;9.90;5.50;;;;;;;;;;5031514;28;20132;-64
2022/04/22 04:54:38;;;;;;;12.40;5.30;;;;;;;;;;5043554;28;20392;-65
2022/04/22 04:57:04;;;;;;;7.85;4.32;;;;;;;;;;5042561;28;20389;-65
2022/04/22 04:59:30;;;;;;;11.88;5.18;;;;;;;;;;5039976;28;20128;-64
2022/04/22 05:01:57;;;;;;;9.20;4.78;;;;;;;;;;5045407;28;20085;-65
2022/04/22 05:04:23;;;;;;;10.32;4.68;;;;;;;;;;5042209;28;20049;-65
2022/04/22 05:06:49;;;;;;;7.65;4.07;;;;;;;;;;5044608;28;20061;-65
2022/04/22 05:09:15;;;;;;;15.25;4.95;;;;;;;;;;5039632;28;20450;-65
2022/04/22 05:11:41;;;;;;;11.55;5.07;;;;;;;;;;5044196;28;20539;-65
2022/04/22 05:14:07;;;;;;;9.55;4.32;;;;;;;;;;5040535;28;20483;-65
2022/04/22 05:16:34;;;;;;;10.63;4.05;;;;;;;;;;5042977;28;20464;-64
2022/04/22 05:19:00;;;;;;;9.75;4.55;;;;;;;;;;5043948;28;20040;-64
2022/04/22 05:21:26;;;;;;;10.07;4.38;;;;;;;;;;5045973;28;20087;-63
2022/04/22 05:23:52;;;;;;;8.20;4.20;;;;;;;;;;5043814;28;20037;-64
2022/04/22 05:26:18;;;;;;;9.52;4.50;;;;;;;;;;5041897;28;20095;-65
2022/04/22 05:28:45;;;;;;;11.77;4.07;;;;;;;;;;5045784;28;20116;-64
2022/04/22 05:33:56;;;;;;;8.20;3.50;;;;;;;;;;5040803;28;20057;-65
2022/04/22 05:36:22;;;;;;;8.05;3.67;;;;;;;;;;5046475;28;20052;-65
2022/04/22 05:38:49;;;;;;;7.55;3.40;;;;;;;;;;5065491;28;20053;-65
2022/04/22 05:41:15;;;;;;;8.95;3.83;;;;;;;;;;5065165;28;20056;-65
2022/04/22 05:43:41;;;;;;;8.98;4.00;;;;;;;;;;5067088;28;20113;-65
2022/04/22 05:46:07;;;;;;;12.93;3.45;;;;;;;;;;5064841;28;20048;-65
2022/04/22 05:48:33;;;;;;;5.60;3.17;;;;;;;;;;5065414;28;20131;-65
2022/04/22 05:50:59;;;;;;;8.15;3.08;;;;;;;;;;5066243;28;20515;-65
2022/04/22 05:53:26;;;;;;;7.40;2.97;;;;;;;;;;5066443;28;20084;-65
2022/04/22 05:55:52;;;;;;;8.68;3.15;;;;;;;;;;5045002;28;20040;-65
2022/04/22 05:58:18;;;;;;;10.07;3.80;;;;;;;;;;5046515;28;20048;-65
2022/04/22 06:00:44;;;;;;;8.95;3.45;;;;;;;;;;5060974;28;20071;-65
2022/04/22 06:03:10;;;;;;;7.70;3.60;;;;;;;;;;5065009;28;20033;-65
2022/04/22 06:05:36;;;;;;;8.55;3.33;;;;;;;;;;5064903;28;20136;-65
2022/04/22 06:10:54;;;;;;;6.03;2.90;;;;;;;;;;5063562;28;20127;-65
2022/04/22 06:13:20;;;;;;;6.57;2.80;;;;;;;;;;5060645;28;20045;-65
2022/04/22 06:15:46;;;;;;;7.82;2.90;;;;;;;;;;5038528;28;20573;-65
2022/04/22 06:18:12;;;;;;;7.60;3.47;;;;;;;;;;5046982;28;20045;-65
2022/04/22 06:20:39;;;;;;;6.22;2.97;;;;;;;;;;5064000;28;20056;-65
2022/04/22 06:23:05;;;;;;;5.22;2.90;;;;;;;;;;5062727;28;20120;-65
2022/04/22 06:25:31;;;;;;;9.75;3.42;;;;;;;;;;5045175;28;20045;-65
2022/04/22 06:27:58;;;;;;;5.95;2.97;;;;;;;;;;5066754;28;21610;-65
2022/04/22 06:30:25;;;;;;;7.85;3.20;;;;;;;;;;5040784;28;20056;-65
2022/04/22 06:32:52;;;;;;;9.13;3.10;;;;;;;;;;5060542;28;20459;-65
2022/04/22 06:35:19;;;;;;;8.52;2.90;;;;;;;;;;5062354;28;20036;-65
2022/04/22 06:37:47;;;;;;;8.77;2.85;;;;;;;;;;5063251;28;20049;-65
2022/04/22 06:45:47;;;;;;;8.20;3.20;;;;;;;;;;5065205;28;20063;-65
2022/04/22 06:48:21;;;;;;;5.88;2.60;;;;;;;;;;5045907;28;20048;-65
2022/04/22 06:50:49;;;;;;;7.07;2.90;;;;;;;;;;5066687;28;20496;-66
2022/04/22 06:53:16;;;;;;;5.65;2.85;;;;;;;;;;5066379;28;20043;-65
2022/04/22 06:55:42;;;;;;;7.15;2.80;;;;;;;;;;5064574;28;20047;-65
2022/04/22 06:58:10;;;;;;;5.43;2.33;;;;;;;;;;5065512;28;20119;-65
2022/04/22 07:00:36;;;;;;;8.63;2.70;;;;;;;;;;5067923;28;20115;-65
2022/04/22 07:03:04;;;;;;;6.07;2.70;;;;;;;;;;5071449;28;20040;-65
2022/04/22 07:05:31;;;;;;;9.40;2.83;;;;;;;;;;5063716;28;20040;-65
2022/04/22 07:07:57;;;;;;;6.15;2.20;;;;;;;;;;5068157;28;20115;-64
2022/04/22 07:10:23;;;;;;;6.80;2.08;;;;;;;;;;5071561;28;20048;-65
2022/04/22 07:12:49;;;;;;;10.25;2.90;;;;;;;;;;5068979;28;20487;-92
2022/04/22 07:15:16;;;;;;;7.47;2.50;;;;;;;;;;5051660;28;20045;-65
2022/04/22 07:17:42;;;;;;;5.13;2.25;;;;;;;;;;5067909;28;20040;-65
2022/04/22 07:20:10;;;;;;;5.75;2.30;;;;;;;;;;5068631;28;20048;-65
2022/04/22 07:22:36;;;;;;;9.27;3.20;;;;;;;;;;5067619;28;20090;-66
2022/04/22 07:25:03;;;;;;;5.80;2.83;;;;;;;;;;5070871;28;20115;-65
2022/04/22 07:27:33;;;;;;;7.30;2.55;;;;;;;;;;5068799;28;20488;-65
2022/04/22 07:29:59;;;;;;;6.35;2.17;;;;;;;;;;5069019;28;20055;-65
2022/04/22 07:32:27;;;;;;;15.40;3.15;;;;;;;;;;5068454;28;20129;-65
2022/04/22 07:34:54;;;;;;;8.95;2.67;;;;;;;;;;5070890;28;20044;-66
2022/04/22 07:37:21;;;;;;;5.10;2.45;;;;;;;;;;5070025;28;21042;-66
2022/04/22 07:39:47;;;;;;;4.75;2.22;;;;;;;;;;5065211;28;20039;-65
2022/04/22 07:42:17;;;;;;;6.80;2.55;;;;;;;;;;5069238;28;20698;-65
2022/04/22 07:47:32;;;;;;;8.38;2.60;;;;;;;;;;5064586;28;20087;-65
2022/04/22 07:49:58;;;;;;;8.02;2.83;;;;;;;;;;5060672;28;20041;-65
2022/04/22 07:52:25;;;;;;;5.80;2.85;;;;;;;;;;5063932;28;20052;-65
2022/04/22 07:54:51;;;;;;;6.90;2.75;;;;;;;;;;5065324;28;20101;-65
2022/04/22 07:57:17;;;;;;;6.93;3.05;;;;;;;;;;5064648;28;20051;-65
2022/04/22 07:59:43;;;;;;;8.63;2.58;;;;;;;;;;5064711;28;20059;-65
2022/04/22 08:02:09;;;;;;;6.20;2.20;;;;;;;;;;5064548;28;20048;-65
2022/04/22 08:04:36;;;;;;;6.32;2.30;;;;;;;;;;5048962;28;21638;-65
2022/04/22 08:07:05;;;;;;;8.98;2.20;;;;;;;;;;5068732;28;20098;-66
2022/04/22 08:09:31;;;;;;;9.00;2.97;;;;;;;;;;5065992;28;20123;-65
2022/04/22 08:11:57;;;;;;;8.55;2.63;;;;;;;;;;5057048;28;20128;-65
2022/04/22 08:14:25;;;;;;;7.97;3.03;;;;;;;;;;5056767;28;20474;-66
2022/04/22 08:16:51;;;;;;;7.90;3.03;;;;;;;;;;5048271;28;20056;-66
2022/04/22 08:19:18;;;;;;;8.90;2.63;;;;;;;;;;5048282;28;20048;-66
2022/04/22 08:21:45;;;;;;;5.32;2.40;;;;;;;;;;5068261;28;20060;-66
2022/04/22 08:24:11;;;;;;;8.15;3.35;;;;;;;;;;5050276;28;20040;-65
2022/04/22 08:26:37;;;;;;;7.97;2.97;;;;;;;;;;5068533;28;20048;-65
2022/04/22 08:29:04;;;;;;;9.88;3.00;;;;;;;;;;5050752;28;20098;-66
2022/04/22 08:31:30;;;;;;;9.48;3.20;;;;;;;;;;5069491;28;20127;-66
2022/04/22 08:33:57;;;;;;;6.25;2.60;;;;;;;;;;5050879;28;20510;-65
2022/04/22 08:36:24;;;;;;;7.20;2.92;;;;;;;;;;5049964;28;20056;-66
2022/04/22 08:38:50;;;;;;;6.35;2.95;;;;;;;;;;5069012;28;20056;-66
2022/04/22 08:41:17;;;;;;;7.18;3.10;;;;;;;;;;5068837;28;20091;-65
2022/04/22 08:43:43;;;;;;;7.15;2.67;;;;;;;;;;5067485;28;20028;-65
2022/04/22 08:49:58;;;;;;;7.32;2.60;;;;;;;;;;5068953;28;20119;-66
2022/04/22 08:51:44;;;;;;;5.95;2.45;;;;;;;;;;5063421;28;20088;-66
2022/04/22 08:54:11;;;;;;;8.18;2.63;;;;;;;;;;5063531;28;20107;-65
2022/04/22 08:56:39;;;;;;;5.13;2.67;;;;;;;;;;5048711;28;20120;-66
2022/04/22 08:59:05;;;;;;;11.05;3.17;;;;;;;;;;5069191;28;20043;-66
2022/04/22 09:01:31;;;;;;;6.72;2.90;;;;;;;;;;5066808;28;20052;-65
2022/04/22 09:03:58;;;;;;;10.15;2.90;;;;;;;;;;5065672;28;20055;-65
2022/04/22 09:06:26;;;;;;;8.85;2.90;;;;;;;;;;5066964;28;20045;-65
2022/04/22 09:08:54;;;;;;;10.35;2.97;;;;;;;;;;5069610;28;21249;-66
2022/04/22 09:11:21;;;;;;;7.18;2.85;;;;;;;;;;5069204;28;20097;-65
2022/04/22 09:13:47;;;;;;;14.25;3.30;;;;;;;;;;5064298;28;20040;-65
2022/04/22 09:16:21;;;;;;;7.18;2.92;;;;;;;;;;5069331;28;20049;-65
2022/04/22 09:18:47;;;;;;;5.93;2.47;;;;;;;;;;5065713;28;20103;-66
2022/04/22 09:21:18;;;;;;;11.73;2.88;;;;;;;;;;5067223;28;20048;-66
2022/04/22 09:23:46;;;;;;;7.30;3.30;;;;;;;;;;5063320;28;20502;-66
2022/04/22 09:26:21;;;;;;;7.20;2.67;;;;;;;;;;5067511;28;20554;-65
2022/04/22 09:28:58;;;;;;;6.28;3.13;;;;;;;;;;5066158;28;20146;-65
2022/04/22 09:31:25;;;;;;;6.18;2.80;;;;;;;;;;5065144;28;20542;-65
2022/04/22 09:33:52;;;;;;;6.78;3.13;;;;;;;;;;5065239;28;20040;-66
2022/04/22 09:44:52;;;;;;;12.48;3.35;;;;;;;;;;5026537;28;20132;-66
2022/04/22 09:47:20;;;;;;;10.25;3.67;;;;;;;;;;5027520;28;20052;-66
2022/04/22 09:49:46;;;;;;;6.00;2.80;;;;;;;;;;5025531;28;20042;-66
2022/04/22 09:52:12;;;;;;;11.40;3.75;;;;;;;;;;5024903;28;20120;-66
2022/04/22 09:54:39;;;;;;;6.63;2.78;;;;;;;;;;5024460;28;20060;-66
2022/04/22 09:57:06;;;;;;;7.93;2.95;;;;;;;;;;5028825;28;20041;-66
2022/04/22 09:59:33;;;;;;;6.57;2.85;;;;;;;;;;5025669;28;20042;-66
2022/04/22 10:02:01;;;;;;;8.27;3.40;;;;;;;;;;5027043;28;20056;-65
2022/04/22 10:04:28;;;;;;;5.82;2.83;;;;;;;;;;5024997;28;20266;-65
2022/04/22 10:06:56;;;;;;;8.80;3.63;;;;;;;;;;5020450;28;20049;-73
2022/04/22 10:09:23;;;;;;;8.07;2.92;;;;;;;;;;5020771;28;20041;-65
2022/04/22 10:11:54;;;;;;;11.77;3.47;;;;;;;;;;5026637;28;20049;-66
2022/04/22 10:14:27;;;;;;;11.60;3.90;;;;;;;;;;5020388;28;20064;-66
2022/04/22 10:16:53;;;;;;;8.50;3.20;;;;;;;;;;5019263;28;20048;-66
2022/04/22 10:19:20;;;;;;;10.45;3.67;;;;;;;;;;5017540;28;20049;-66
2022/04/22 10:21:46;;;;;;;8.98;3.05;;;;;;;;;;5017254;28;20485;-66
2022/04/22 10:24:13;;;;;;;7.22;3.28;;;;;;;;;;5018839;28;20057;-67
2022/04/22 10:26:40;;;;;;;12.82;3.65;;;;;;;;;;5017076;28;20034;-66
2022/04/22 10:29:06;;;;;;;12.95;4.10;;;;;;;;;;5016386;28;20040;-66
2022/04/22 10:31:33;;;;;;;8.52;3.40;;;;;;;;;;5021931;28;20450;-67
2022/04/22 10:34:06;;;;;;;7.47;3.13;;;;;;;;;;5016364;28;20033;-65
2022/04/22 10:36:33;;;;;;;11.52;3.55;;;;;;;;;;5020835;28;20046;-66
2022/04/22 10:39:00;;;;;;;7.32;3.42;;;;;;;;;;5018995;28;20061;-66
2022/04/22 10:41:26;;;;;;;12.52;3.90;;;;;;;;;;5020522;28;20091;-66
2022/04/22 10:49:36;;;;;;;9.05;3.30;;;;;;;;;;5019928;28;20053;-66
2022/04/22 10:52:09;;;;;;;11.60;4.05;;;;;;;;;;5039808;28;20607;-66
2022/04/22 10:54:35;;;;;;;;;;;;;;;;;;5023451;28;20045;-66
2022/04/22 10:57:16;;;;;;;10.98;3.60;;;;;;;;;;5021112;28;19944;-66
2022/04/22 10:59:42;;;;;;;7.35;3.55;;;;;;;;;;5024567;28;20041;-66
2022/04/22 11:02:29;;;;;;;7.82;3.53;;;;;;;;;;5022823;28;20141;-66
2022/04/22 11:05:14;;;;;;;9.02;4.05;;;;;;;;;;5024958;28;20154;-66
2022/04/22 11:07:53;;;;;;;11.10;4.10;;;;;;;;;;5024231;28;20045;-66
2022/04/22 11:10:21;;;;;;;10.80;4.40;;;;;;;;;;5024769;28;20049;-66
2022/04/22 11:12:54;;;;;;;10.75;4.10;;;;;;;;;;5025331;28;20052;-66
2022/04/22 11:15:39;;;;;;;9.00;3.20;;;;;;;;;;5026857;28;20037;-66
2022/04/22 11:18:05;;;;;;;8.43;4.32;;;;;;;;;;5023591;28;20354;-65
2022/04/22 11:20:31;;;;;;;10.85;3.78;;;;;;;;;;5023188;28;20045;-66
2022/04/22 11:22:58;;;;;;;9.52;3.85;;;;;;;;;;5026759;28;20037;-66
2022/04/22 11:25:27;;;;;;;7.72;4.00;;;;;;;;;;5025484;28;20192;-66
2022/04/22 11:27:55;;;;;;;13.30;3.88;;;;;;;;;;5026046;28;20041;-66
2022/04/22 11:30:22;;;;;;;13.10;3.90;;;;;;;;;;5023344;28;20043;-66
2022/04/22 11:32:49;;;;;;;10.77;3.72;;;;;;;;;;5026283;28;20227;-66
2022/04/22 11:35:20;;;;;;;9.90;3.90;;;;;;;;;;5026394;28;20120;-66
2022/04/22 11:37:56;;;;;;;11.05;4.38;;;;;;;;;;5045204;28;20048;-66
2022/04/22 11:40:22;;;;;;;11.57;3.88;;;;;;;;;;5062054;28;20559;-66
2022/04/22 11:42:50;;;;;;;7.82;3.90;;;;;;;;;;5064287;28;20098;-67
2022/04/22 11:45:16;;;;;;;7.28;3.92;;;;;;;;;;5044211;28;20064;-66
2022/04/22 11:47:43;;;;;;;10.73;4.20;;;;;;;;;;5049636;28;20553;-66
2022/04/22 11:50:10;;;;;;;12.63;4.63;;;;;;;;;;5063920;28;20087;-66
2022/04/22 11:52:36;;;;;;;7.68;4.20;;;;;;;;;;5047011;28;20048;-67
2022/04/22 11:55:03;;;;;;;11.48;4.75;;;;;;;;;;5068144;28;20213;-66
2022/04/22 11:57:33;;;;;;;11.90;4.75;;;;;;;;;;5048751;28;20049;-66
2022/04/22 12:05:33;;;;;;;11.23;4.72;;;;;;;;;;5069241;28;20044;-66
2022/04/22 12:08:10;;;;;;;10.57;4.70;;;;;;;;;;5068317;28;20071;-65
2022/04/22 12:10:37;;;;;;;8.98;4.18;;;;;;;;;;5052243;28;20557;-66
2022/04/22 12:13:04;;;;;;;11.02;4.72;;;;;;;;;;5072138;28;20033;-66
2022/04/22 12:15:31;;;;;;;11.43;3.95;;;;;;;;;;5055125;28;20059;-66
2022/04/22 12:17:58;;;;;;;11.27;4.40;;;;;;;;;;5046308;28;20052;-66
2022/04/22 12:20:26;;;;;;;15.15;4.70;;;;;;;;;;5065258;28;20051;-67
2022/04/22 12:22:53;;;;;;;8.48;4.53;;;;;;;;;;5071795;28;20076;-66
2022/04/22 12:25:20;;;;;;;7.05;3.65;;;;;;;;;;5067440;28;20036;-66
2022/04/22 12:28:07;;;;;;;10.65;4.10;;;;;;;;;;5053467;28;20037;-66
2022/04/22 12:30:35;;;;;;;71.22;6.68;;;;;;;;;;5038970;28;20044;-75
2022/04/22 12:33:02;;;;;;;9.35;4.20;;;;;;;;;;5049746;28;20064;-67
2022/04/22 12:35:28;;;;;;;20.13;5.18;;;;;;;;;;5060265;28;20069;-67
2022/04/22 12:37:56;;;;;;;16.27;5.05;;;;;;;;;;5062914;28;20041;-67
2022/04/22 12:40:23;;;;;;;7.13;4.25;;;;;;;;;;5047644;28;20048;-67
2022/04/22 12:42:49;;;;;;;9.88;4.30;;;;;;;;;;5045106;28;20052;-68
2022/04/22 12:53:47;;;;;;;12.60;5.00;;;;;;;;;;5064000;28;20057;-67
2022/04/22 12:56:13;;;;;;;12.65;5.13;;;;;;;;;;5064197;28;20045;-67
2022/04/22 12:58:50;;;;;;;14.52;4.68;;;;;;;;;;5062401;28;20036;-67
2022/04/22 13:01:19;;;;;;;17.73;4.53;;;;;;;;;;5061841;28;20141;-67
2022/04/22 13:03:45;;;;;;;11.68;4.32;;;;;;;;;;5043109;28;20542;-67
2022/04/22 13:06:12;;;;;;;12.07;4.47;;;;;;;;;;5064934;28;20040;-67
2022/04/22 13:08:38;;;;;;;15.32;4.57;;;;;;;;;;5026373;28;20084;-67
2022/04/22 13:11:08;;;;;;;15.25;4.50;;;;;;;;;;5062196;28;20393;-67
2022/04/22 13:13:34;;;;;;;8.57;4.72;;;;;;;;;;5060070;28;20040;-67
2022/04/22 13:16:00;;;;;;;12.88;4.65;;;;;;;;;;5040260;28;20165;-67
2022/04/22 13:18:27;;;;;;;9.38;4.60;;;;;;;;;;5059381;28;20055;-67
2022/04/22 13:20:54;;;;;;;7.20;4.28;;;;;;;;;;5062008;28;20159;-67
2022/04/22 13:23:20;;;;;;;9.15;4.85;;;;;;;;;;5042625;28;20148;-67
2022/04/22 13:25:46;;;;;;;8.27;4.50;;;;;;;;;;5038609;28;20082;-67
2022/04/22 13:28:12;;;;;;;11.93;4.70;;;;;;;;;;5058088;28;20429;-68
2022/04/22 13:30:38;;;;;;;7.93;4.75;;;;;;;;;;5060587;28;20406;-68
2022/04/22 13:33:05;;;;;;;11.02;5.07;;;;;;;;;;5061651;28;20040;-68
2022/04/22 13:35:31;;;;;;;11.20;4.40;;;;;;;;;;5060859;28;20045;-67
2022/04/22 13:37:57;;;;;;;9.60;4.30;;;;;;;;;;5041170;28;20120;-67
2022/04/22 13:40:24;;;;;;;10.40;5.22;;;;;;;;;;5058349;28;20047;-67
2022/04/22 13:42:50;;;;;;;12.65;5.22;;;;;;;;;;5057797;28;20471;-67
2022/04/22 13:53:33;;;;;;;12.85;5.30;;;;;;;;;;5042741;28;20562;-67
2022/04/22 13:56:00;;;;;;;14.50;4.75;;;;;;;;;;5057619;28;20039;-67
2022/04/22 13:58:26;;;;;;;9.18;4.82;;;;;;;;;;5062129;28;20049;-67
2022/04/22 14:00:53;;;;;;;13.75;5.40;;;;;;;;;;5064837;28;20041;-67
2022/04/22 14:03:20;;;;;;;21.63;5.80;;;;;;;;;;5064836;28;20052;-68
2022/04/22 14:05:46;;;;;;;11.00;5.13;;;;;;;;;;5062168;28;20120;-68
2022/04/22 14:08:12;;;;;;;10.30;5.05;;;;;;;;;;5062367;28;20488;-68
2022/04/22 14:10:38;;;;;;;11.93;6.57;;;;;;;;;;5048158;28;20519;-67
2022/04/22 14:13:04;;;;;;;12.00;5.22;;;;;;;;;;5066072;28;20097;-67
2022/04/22 14:15:30;;;;;;;13.70;5.75;;;;;;;;;;5066844;28;20028;-68
2022/04/22 14:17:57;;;;;;;12.40;5.38;;;;;;;;;;5068634;28;20037;-67
2022/04/22 14:20:24;;;;;;;11.90;5.07;;;;;;;;;;5067233;28;20048;-68
2022/04/22 14:22:50;;;;;;;13.20;5.28;;;;;;;;;;5048708;28;20041;-67
2022/04/22 14:25:16;;;;;;;13.95;5.18;;;;;;;;;;5065335;28;20045;-67
2022/04/22 14:27:42;;;;;;;12.85;5.00;;;;;;;;;;5047329;28;20048;-67
2022/04/22 14:30:10;;;;;;;11.77;5.18;;;;;;;;;;5050318;28;20037;-76
2022/04/22 14:32:36;;;;;;;10.30;5.50;;;;;;;;;;5047039;28;20089;-67
2022/04/22 14:35:02;;;;;;;14.02;5.53;;;;;;;;;;5066001;28;20111;-67
2022/04/22 14:37:28;;;;;;;13.85;5.13;;;;;;;;;;5065481;28;20098;-67
2022/04/22 14:39:55;;;;;;;10.15;5.22;;;;;;;;;;5049044;28;20052;-66
2022/04/22 14:42:21;;;;;;;12.60;5.80;;;;;;;;;;5065715;28;20051;-66
2022/04/22 14:44:48;;;;;;;7.93;5.10;;;;;;;;;;5045385;28;20120;-66
2022/04/22 14:47:14;;;;;;;14.75;5.72;;;;;;;;;;5062365;28;20041;-66
2022/04/22 14:49:40;;;;;;;14.88;5.40;;;;;;;;;;5066504;28;20040;-66
2022/04/22 14:52:07;;;;;;;12.93;6.32;;;;;;;;;;5065518;28;20477;-67
2022/04/22 14:54:33;;;;;;;10.05;5.72;;;;;;;;;;5047540;28;20049;-67
2022/04/22 14:56:59;;;;;;;9.80;5.82;;;;;;;;;;5047856;28;20086;-66
2022/04/22 14:59:26;;;;;;;9.65;5.68;;;;;;;;;;5044118;28;20037;-67
2022/04/22 15:01:53;;;;;;;13.88;5.78;;;;;;;;;;5066028;28;20051;-67
2022/04/22 15:04:19;;;;;;;13.32;5.57;;;;;;;;;;5033591;28;20045;-66
2022/04/22 15:06:45;;;;;;;11.73;6.13;;;;;;;;;;5044397;28;20169;-66
2022/04/22 15:09:11;;;;;;;11.85;6.43;;;;;;;;;;5059996;28;20117;-66
2022/04/22 15:11:37;;;;;;;15.57;6.55;;;;;;;;;;5043497;28;20104;-66
2022/04/22 15:14:05;;;;;;;13.90;6.63;;;;;;;;;;5062577;28;20044;-66
2022/04/22 15:16:31;;;;;;;13.63;6.60;;;;;;;;;;5063148;28;20055;-66
2022/04/22 15:24:31;;;;;;;12.05;6.32;;;;;;;;;;5050024;28;20052;-66
2022/04/22 15:26:58;;;;;;;13.02;5.88;;;;;;;;;;5049210;28;20128;-66
2022/04/22 15:29:26;;;;;;;16.15;7.20;;;;;;;;;;5051861;28;20065;-66
2022/04/22 15:31:52;;;;;;;12.32;5.97;;;;;;;;;;5043417;28;20139;-66
2022/04/22 15:34:19;;;;;;;12.35;6.30;;;;;;;;;;5063929;28;20044;-66
2022/04/22 15:36:47;;;;;;;10.43;5.88;;;;;;;;;;5063083;28;20048;-66
2022/04/22 15:39:13;;;;;;;11.20;5.93;;;;;;;;;;5059784;28;20060;-66
2022/04/22 15:41:40;;;;;;;13.30;6.03;;;;;;;;;;5044108;28;20127;-65
2022/04/22 15:44:06;;;;;;;10.73;5.53;;;;;;;;;;5043546;28;20189;-65
2022/04/22 15:46:32;;;;;;;11.40;5.68;;;;;;;;;;5058702;28;20048;-65
2022/04/22 15:48:58;;;;;;;11.55;5.35;;;;;;;;;;5045880;28;20437;-66
2022/04/22 15:51:25;;;;;;;9.77;5.65;;;;;;;;;;5045358;28;20437;-66
2022/04/22 15:53:52;;;;;;;11.95;5.45;;;;;;;;;;5065810;28;20056;-66
2022/04/22 15:56:19;;;;;;;11.68;5.68;;;;;;;;;;5053007;28;20044;-66
2022/04/22 15:58:46;;;;;;;10.20;5.50;;;;;;;;;;5068968;28;20039;-66
2022/04/22 16:01:15;;;;;;;15.88;6.30;;;;;;;;;;5069641;28;20048;-66
2022/04/22 16:03:48;;;;;;;11.85;5.35;;;;;;;;;;5065473;28;20116;-66